sensor_id;sensor_type;location;lat;lon;timestamp;temperature;humidity
16801;DHT22;8518;53.236;10.384;2023-07-16T00:02:12;20.90;99.90
16801;DHT22;8518;53.236;10.384;2023-07-16T00:04:37;20.80;99.90
16801;DHT22;8518;53.236;10.384;2023-07-16T00:07:04;20.70;99.90
16801;DHT22;8518;53.236;10.384;2023-07-16T00:09:30;20.60;99.90
16801;DHT22;8518;53.236;10.384;2023-07-16T00:11:57;20.50;99.90
16801;DHT22;8518;53.236;10.384;2023-07-16T00:14:23;20.50;99.90
16801;DHT22;8518;53.236;10.384;2023-07-16T00:16:48;20.40;99.90
16801;DHT22;8518;53.236;10.384;2023-07-16T00:19:14;20.40;99.90
16801;DHT22;8518;53.236;10.384;2023-07-16T00:21:40;20.40;99.90
16801;DHT22;8518;53.236;10.384;2023-07-16T00:24:06;20.40;99.90
16801;DHT22;8518;53.236;10.384;2023-07-16T00:26:31;20.40;99.90
16801;DHT22;8518;53.236;10.384;2023-07-16T00:28:57;20.40;99.90
16801;DHT22;8518;53.236;10.384;2023-07-16T00:31:23;20.40;99.90
16801;DHT22;8518;53.236;10.384;2023-07-16T00:33:48;20.40;99.90
16801;DHT22;8518;53.236;10.384;2023-07-16T00:36:15;20.40;99.90
16801;DHT22;8518;53.236;10.384;2023-07-16T00:38:40;20.40;99.90
16801;DHT22;8518;53.236;10.384;2023-07-16T00:41:06;20.30;99.90
16801;DHT22;8518;53.236;10.384;2023-07-16T00:43:32;20.20;99.90
16801;DHT22;8518;53.236;10.384;2023-07-16T00:45:58;20.20;99.90
16801;DHT22;8518;53.236;10.384;2023-07-16T00:48:24;20.20;99.90
16801;DHT22;8518;53.236;10.384;2023-07-16T00:50:51;20.10;99.90
16801;DHT22;8518;53.236;10.384;2023-07-16T00:53:18;20.10;99.90
16801;DHT22;8518;53.236;10.384;2023-07-16T00:55:45;19.70;99.90
16801;DHT22;8518;53.236;10.384;2023-07-16T00:58:11;20.00;99.90
16801;DHT22;8518;53.236;10.384;2023-07-16T01:00:38;20.00;99.90
16801;DHT22;8518;53.236;10.384;2023-07-16T01:03:07;20.00;99.90
16801;DHT22;8518;53.236;10.384;2023-07-16T01:05:49;20.00;99.90
16801;DHT22;8518;53.236;10.384;2023-07-16T01:08:22;20.00;99.90
16801;DHT22;8518;53.236;10.384;2023-07-16T01:10:52;20.00;99.90
16801;DHT22;8518;53.236;10.384;2023-07-16T01:13:19;19.90;99.90
16801;DHT22;8518;53.236;10.384;2023-07-16T01:15:45;19.80;99.90
16801;DHT22;8518;53.236;10.384;2023-07-16T01:18:10;19.80;99.90
16801;DHT22;8518;53.236;10.384;2023-07-16T01:20:36;19.90;99.90
16801;DHT22;8518;53.236;10.384;2023-07-16T01:23:26;19.90;99.90
16801;DHT22;8518;53.236;10.384;2023-07-16T01:29:36;20.00;99.90
16801;DHT22;8518;53.236;10.384;2023-07-16T01:32:07;20.00;99.90
16801;DHT22;8518;53.236;10.384;2023-07-16T01:34:34;20.00;99.90
16801;DHT22;8518;53.236;10.384;2023-07-16T01:37:02;20.00;99.90
16801;DHT22;8518;53.236;10.384;2023-07-16T01:39:28;20.00;99.90
16801;DHT22;8518;53.236;10.384;2023-07-16T01:41:54;19.90;99.90
16801;DHT22;8518;53.236;10.384;2023-07-16T01:44:20;19.90;99.90
16801;DHT22;8518;53.236;10.384;2023-07-16T01:47:00;19.80;99.90
16801;DHT22;8518;53.236;10.384;2023-07-16T01:49:27;19.80;99.90
16801;DHT22;8518;53.236;10.384;2023-07-16T01:51:53;19.90;99.90
16801;DHT22;8518;53.236;10.384;2023-07-16T01:54:18;19.90;99.90
16801;DHT22;8518;53.236;10.384;2023-07-16T01:56:44;19.80;99.90
16801;DHT22;8518;53.236;10.384;2023-07-16T01:59:09;19.80;99.90
16801;DHT22;8518;53.236;10.384;2023-07-16T02:01:36;19.80;99.90
16801;DHT22;8518;53.236;10.384;2023-07-16T02:04:02;19.80;99.90
16801;DHT22;8518;53.236;10.384;2023-07-16T02:06:28;19.80;99.90
16801;DHT22;8518;53.236;10.384;2023-07-16T02:08:53;19.80;99.90
16801;DHT22;8518;53.236;10.384;2023-07-16T02:11:19;19.90;99.90
16801;DHT22;8518;53.236;10.384;2023-07-16T02:13:47;19.80;99.90
16801;DHT22;8518;53.236;10.384;2023-07-16T02:16:12;19.80;99.90
16801;DHT22;8518;53.236;10.384;2023-07-16T02:18:38;19.80;99.90
16801;DHT22;8518;53.236;10.384;2023-07-16T02:21:03;19.70;99.90
16801;DHT22;8518;53.236;10.384;2023-07-16T02:23:29;19.70;99.90
16801;DHT22;8518;53.236;10.384;2023-07-16T02:25:55;19.70;99.90
16801;DHT22;8518;53.236;10.384;2023-07-16T02:28:20;19.70;99.90
16801;DHT22;8518;53.236;10.384;2023-07-16T02:30:46;19.60;99.90
16801;DHT22;8518;53.236;10.384;2023-07-16T02:33:11;19.60;99.90
16801;DHT22;8518;53.236;10.384;2023-07-16T02:35:37;19.70;99.90
16801;DHT22;8518;53.236;10.384;2023-07-16T02:38:03;19.60;99.90
16801;DHT22;8518;53.236;10.384;2023-07-16T02:40:28;19.50;99.90
16801;DHT22;8518;53.236;10.384;2023-07-16T02:42:54;19.50;99.90
16801;DHT22;8518;53.236;10.384;2023-07-16T02:45:19;19.50;99.90
16801;DHT22;8518;53.236;10.384;2023-07-16T02:47:45;19.40;99.90
16801;DHT22;8518;53.236;10.384;2023-07-16T02:50:11;19.30;99.90
16801;DHT22;8518;53.236;10.384;2023-07-16T02:52:36;19.20;99.90
16801;DHT22;8518;53.236;10.384;2023-07-16T02:55:02;19.20;99.90
16801;DHT22;8518;53.236;10.384;2023-07-16T02:57:28;19.10;99.90
16801;DHT22;8518;53.236;10.384;2023-07-16T02:59:54;19.00;99.90
16801;DHT22;8518;53.236;10.384;2023-07-16T03:02:19;19.00;99.90
16801;DHT22;8518;53.236;10.384;2023-07-16T03:04:45;18.90;99.90
16801;DHT22;8518;53.236;10.384;2023-07-16T03:07:10;18.90;99.90
16801;DHT22;8518;53.236;10.384;2023-07-16T03:09:36;19.10;99.90
16801;DHT22;8518;53.236;10.384;2023-07-16T03:12:02;18.80;99.90
16801;DHT22;8518;53.236;10.384;2023-07-16T03:14:27;18.90;99.90
16801;DHT22;8518;53.236;10.384;2023-07-16T03:16:54;18.80;99.90
16801;DHT22;8518;53.236;10.384;2023-07-16T03:19:19;18.80;99.90
16801;DHT22;8518;53.236;10.384;2023-07-16T03:21:45;18.70;99.90
16801;DHT22;8518;53.236;10.384;2023-07-16T03:24:11;18.70;99.90
16801;DHT22;8518;53.236;10.384;2023-07-16T03:26:37;18.60;99.90
16801;DHT22;8518;53.236;10.384;2023-07-16T03:29:03;18.50;99.90
16801;DHT22;8518;53.236;10.384;2023-07-16T03:31:28;18.80;99.90
16801;DHT22;8518;53.236;10.384;2023-07-16T03:33:54;18.50;99.90
16801;DHT22;8518;53.236;10.384;2023-07-16T03:36:20;18.50;99.90
16801;DHT22;8518;53.236;10.384;2023-07-16T03:38:45;18.40;99.90
16801;DHT22;8518;53.236;10.384;2023-07-16T03:41:11;18.30;99.90
16801;DHT22;8518;53.236;10.384;2023-07-16T03:43:37;18.30;99.90
16801;DHT22;8518;53.236;10.384;2023-07-16T03:46:04;18.30;99.90
16801;DHT22;8518;53.236;10.384;2023-07-16T03:48:32;18.30;99.90
16801;DHT22;8518;53.236;10.384;2023-07-16T03:50:58;18.20;99.90
16801;DHT22;8518;53.236;10.384;2023-07-16T03:53:23;18.10;99.90
16801;DHT22;8518;53.236;10.384;2023-07-16T03:55:49;18.20;99.90
16801;DHT22;8518;53.236;10.384;2023-07-16T03:58:15;18.20;99.90
16801;DHT22;8518;53.236;10.384;2023-07-16T04:00:41;18.00;99.90
16801;DHT22;8518;53.236;10.384;2023-07-16T04:03:06;18.20;99.90
16801;DHT22;8518;53.236;10.384;2023-07-16T04:05:32;18.10;99.90
16801;DHT22;8518;53.236;10.384;2023-07-16T04:07:58;18.20;99.90
16801;DHT22;8518;53.236;10.384;2023-07-16T04:10:23;18.20;99.90
16801;DHT22;8518;53.236;10.384;2023-07-16T04:12:49;18.20;99.90
16801;DHT22;8518;53.236;10.384;2023-07-16T04:15:15;18.30;99.90
16801;DHT22;8518;53.236;10.384;2023-07-16T04:17:41;18.10;99.90
16801;DHT22;8518;53.236;10.384;2023-07-16T04:20:07;18.60;99.90
16801;DHT22;8518;53.236;10.384;2023-07-16T04:22:34;18.20;99.90
16801;DHT22;8518;53.236;10.384;2023-07-16T04:25:01;18.20;99.90
16801;DHT22;8518;53.236;10.384;2023-07-16T04:27:27;18.20;99.90
16801;DHT22;8518;53.236;10.384;2023-07-16T04:29:53;18.30;99.90
16801;DHT22;8518;53.236;10.384;2023-07-16T04:32:18;18.40;99.90
16801;DHT22;8518;53.236;10.384;2023-07-16T04:34:44;18.30;99.90
16801;DHT22;8518;53.236;10.384;2023-07-16T04:37:10;18.30;99.90
16801;DHT22;8518;53.236;10.384;2023-07-16T04:39:35;18.40;99.90
16801;DHT22;8518;53.236;10.384;2023-07-16T04:42:01;18.40;99.90
16801;DHT22;8518;53.236;10.384;2023-07-16T04:44:26;18.40;99.90
16801;DHT22;8518;53.236;10.384;2023-07-16T04:46:52;18.40;99.90
16801;DHT22;8518;53.236;10.384;2023-07-16T04:49:17;18.50;99.90
16801;DHT22;8518;53.236;10.384;2023-07-16T04:51:43;18.40;99.90
16801;DHT22;8518;53.236;10.384;2023-07-16T04:54:09;18.60;99.90
16801;DHT22;8518;53.236;10.384;2023-07-16T04:56:34;18.60;99.90
16801;DHT22;8518;53.236;10.384;2023-07-16T04:59:00;18.70;99.90
16801;DHT22;8518;53.236;10.384;2023-07-16T05:01:26;18.50;99.90
16801;DHT22;8518;53.236;10.384;2023-07-16T05:03:52;18.70;99.90
16801;DHT22;8518;53.236;10.384;2023-07-16T05:06:18;18.70;99.90
16801;DHT22;8518;53.236;10.384;2023-07-16T05:08:43;18.60;99.90
16801;DHT22;8518;53.236;10.384;2023-07-16T05:11:09;18.70;99.90
16801;DHT22;8518;53.236;10.384;2023-07-16T05:13:34;18.60;99.90
16801;DHT22;8518;53.236;10.384;2023-07-16T05:16:00;18.70;99.90
16801;DHT22;8518;53.236;10.384;2023-07-16T05:18:26;18.70;99.90
16801;DHT22;8518;53.236;10.384;2023-07-16T05:20:51;18.80;99.90
16801;DHT22;8518;53.236;10.384;2023-07-16T05:23:17;18.90;99.90
16801;DHT22;8518;53.236;10.384;2023-07-16T05:25:49;18.80;99.90
16801;DHT22;8518;53.236;10.384;2023-07-16T05:28:16;19.00;99.90
16801;DHT22;8518;53.236;10.384;2023-07-16T05:30:42;19.00;99.90
16801;DHT22;8518;53.236;10.384;2023-07-16T05:33:07;19.10;99.90
16801;DHT22;8518;53.236;10.384;2023-07-16T05:35:33;19.30;99.90
16801;DHT22;8518;53.236;10.384;2023-07-16T05:37:58;19.20;99.90
16801;DHT22;8518;53.236;10.384;2023-07-16T05:40:24;19.30;99.90
16801;DHT22;8518;53.236;10.384;2023-07-16T05:42:49;19.40;99.90
16801;DHT22;8518;53.236;10.384;2023-07-16T05:45:15;19.40;99.90
16801;DHT22;8518;53.236;10.384;2023-07-16T05:47:41;19.60;99.90
16801;DHT22;8518;53.236;10.384;2023-07-16T05:50:07;19.60;99.90
16801;DHT22;8518;53.236;10.384;2023-07-16T05:52:32;19.60;99.90
16801;DHT22;8518;53.236;10.384;2023-07-16T05:54:58;19.60;99.90
16801;DHT22;8518;53.236;10.384;2023-07-16T05:57:24;19.70;99.90
16801;DHT22;8518;53.236;10.384;2023-07-16T05:59:49;19.80;99.90
16801;DHT22;8518;53.236;10.384;2023-07-16T06:02:15;19.90;99.90
16801;DHT22;8518;53.236;10.384;2023-07-16T06:04:41;20.10;99.90
16801;DHT22;8518;53.236;10.384;2023-07-16T06:07:06;20.20;99.90
16801;DHT22;8518;53.236;10.384;2023-07-16T06:09:33;20.30;99.90
16801;DHT22;8518;53.236;10.384;2023-07-16T06:11:58;20.40;99.90
16801;DHT22;8518;53.236;10.384;2023-07-16T06:14:24;20.30;99.90
16801;DHT22;8518;53.236;10.384;2023-07-16T06:16:50;20.40;99.90
16801;DHT22;8518;53.236;10.384;2023-07-16T06:19:18;20.60;99.90
16801;DHT22;8518;53.236;10.384;2023-07-16T06:21:43;20.70;99.90
16801;DHT22;8518;53.236;10.384;2023-07-16T06:24:09;20.80;99.90
16801;DHT22;8518;53.236;10.384;2023-07-16T06:26:34;20.80;99.90
16801;DHT22;8518;53.236;10.384;2023-07-16T06:29:02;20.90;99.90
16801;DHT22;8518;53.236;10.384;2023-07-16T06:31:28;20.90;99.90
16801;DHT22;8518;53.236;10.384;2023-07-16T06:33:54;20.80;99.90
16801;DHT22;8518;53.236;10.384;2023-07-16T06:36:19;20.90;99.90
16801;DHT22;8518;53.236;10.384;2023-07-16T06:38:46;21.10;99.90
16801;DHT22;8518;53.236;10.384;2023-07-16T06:41:12;21.30;99.90
16801;DHT22;8518;53.236;10.384;2023-07-16T06:43:41;21.40;99.90
16801;DHT22;8518;53.236;10.384;2023-07-16T06:46:07;21.00;99.90
16801;DHT22;8518;53.236;10.384;2023-07-16T06:48:33;21.50;99.90
16801;DHT22;8518;53.236;10.384;2023-07-16T06:50:59;21.50;99.90
16801;DHT22;8518;53.236;10.384;2023-07-16T06:53:26;21.60;99.90
16801;DHT22;8518;53.236;10.384;2023-07-16T06:55:51;21.40;99.90
16801;DHT22;8518;53.236;10.384;2023-07-16T06:58:17;21.10;99.90
16801;DHT22;8518;53.236;10.384;2023-07-16T07:00:43;20.90;99.90
16801;DHT22;8518;53.236;10.384;2023-07-16T07:03:09;20.90;99.90
16801;DHT22;8518;53.236;10.384;2023-07-16T07:05:34;21.20;99.90
16801;DHT22;8518;53.236;10.384;2023-07-16T07:08:03;21.40;99.90
16801;DHT22;8518;53.236;10.384;2023-07-16T07:10:29;21.40;99.90
16801;DHT22;8518;53.236;10.384;2023-07-16T07:12:54;21.40;99.90
16801;DHT22;8518;53.236;10.384;2023-07-16T07:15:21;21.30;99.90
16801;DHT22;8518;53.236;10.384;2023-07-16T07:17:48;21.30;99.90
16801;DHT22;8518;53.236;10.384;2023-07-16T07:20:15;21.30;99.90
16801;DHT22;8518;53.236;10.384;2023-07-16T07:22:41;21.60;99.90
16801;DHT22;8518;53.236;10.384;2023-07-16T07:25:06;21.60;99.90
16801;DHT22;8518;53.236;10.384;2023-07-16T07:27:32;21.70;99.90
16801;DHT22;8518;53.236;10.384;2023-07-16T07:29:58;21.80;99.90
16801;DHT22;8518;53.236;10.384;2023-07-16T07:32:25;22.30;99.90
16801;DHT22;8518;53.236;10.384;2023-07-16T07:34:50;22.70;99.90
16801;DHT22;8518;53.236;10.384;2023-07-16T07:37:16;23.00;99.90
16801;DHT22;8518;53.236;10.384;2023-07-16T07:39:42;23.30;99.90
16801;DHT22;8518;53.236;10.384;2023-07-16T07:42:07;23.30;99.90
16801;DHT22;8518;53.236;10.384;2023-07-16T07:44:34;23.30;99.90
16801;DHT22;8518;53.236;10.384;2023-07-16T07:47:00;23.30;99.90
16801;DHT22;8518;53.236;10.384;2023-07-16T07:49:25;23.30;99.90
16801;DHT22;8518;53.236;10.384;2023-07-16T07:51:51;23.20;99.90
16801;DHT22;8518;53.236;10.384;2023-07-16T07:54:17;23.50;99.90
16801;DHT22;8518;53.236;10.384;2023-07-16T07:56:45;23.50;99.90
16801;DHT22;8518;53.236;10.384;2023-07-16T07:59:11;23.50;99.90
16801;DHT22;8518;53.236;10.384;2023-07-16T08:01:36;23.60;99.90
16801;DHT22;8518;53.236;10.384;2023-07-16T08:04:02;23.50;99.90
16801;DHT22;8518;53.236;10.384;2023-07-16T08:06:28;23.60;99.90
16801;DHT22;8518;53.236;10.384;2023-07-16T08:08:54;23.60;99.90
16801;DHT22;8518;53.236;10.384;2023-07-16T08:11:20;23.50;99.90
16801;DHT22;8518;53.236;10.384;2023-07-16T08:13:45;23.60;99.90
16801;DHT22;8518;53.236;10.384;2023-07-16T08:16:11;23.40;99.90
16801;DHT22;8518;53.236;10.384;2023-07-16T08:18:36;23.50;99.90
16801;DHT22;8518;53.236;10.384;2023-07-16T08:21:02;23.60;99.90
16801;DHT22;8518;53.236;10.384;2023-07-16T08:23:28;23.50;99.90
16801;DHT22;8518;53.236;10.384;2023-07-16T08:25:53;23.10;99.90
16801;DHT22;8518;53.236;10.384;2023-07-16T08:28:19;22.80;99.90
16801;DHT22;8518;53.236;10.384;2023-07-16T08:30:47;22.80;99.90
16801;DHT22;8518;53.236;10.384;2023-07-16T08:33:14;22.90;99.90
16801;DHT22;8518;53.236;10.384;2023-07-16T08:35:40;23.00;99.90
16801;DHT22;8518;53.236;10.384;2023-07-16T08:38:06;22.80;99.90
16801;DHT22;8518;53.236;10.384;2023-07-16T08:40:38;22.60;99.90
16801;DHT22;8518;53.236;10.384;2023-07-16T08:43:06;22.60;99.90
16801;DHT22;8518;53.236;10.384;2023-07-16T08:45:39;22.80;99.90
16801;DHT22;8518;53.236;10.384;2023-07-16T08:48:07;23.00;99.90
16801;DHT22;8518;53.236;10.384;2023-07-16T08:50:37;23.10;99.90
16801;DHT22;8518;53.236;10.384;2023-07-16T08:53:06;23.00;99.90
16801;DHT22;8518;53.236;10.384;2023-07-16T08:55:32;22.70;99.90
16801;DHT22;8518;53.236;10.384;2023-07-16T08:57:58;22.40;99.90
16801;DHT22;8518;53.236;10.384;2023-07-16T09:00:28;22.40;99.90
16801;DHT22;8518;53.236;10.384;2023-07-16T09:02:54;22.50;99.90
16801;DHT22;8518;53.236;10.384;2023-07-16T09:05:22;22.90;99.90
16801;DHT22;8518;53.236;10.384;2023-07-16T09:07:48;23.60;99.90
16801;DHT22;8518;53.236;10.384;2023-07-16T09:10:17;24.10;99.90
16801;DHT22;8518;53.236;10.384;2023-07-16T09:12:44;23.80;99.90
16801;DHT22;8518;53.236;10.384;2023-07-16T09:15:13;23.50;99.90
16801;DHT22;8518;53.236;10.384;2023-07-16T09:17:41;23.20;99.90
16801;DHT22;8518;53.236;10.384;2023-07-16T09:20:07;22.90;99.90
16801;DHT22;8518;53.236;10.384;2023-07-16T09:22:34;22.70;99.90
16801;DHT22;8518;53.236;10.384;2023-07-16T09:25:03;22.60;99.90
16801;DHT22;8518;53.236;10.384;2023-07-16T09:27:33;23.10;99.90
16801;DHT22;8518;53.236;10.384;2023-07-16T09:29:59;24.00;99.90
16801;DHT22;8518;53.236;10.384;2023-07-16T09:32:34;24.30;99.90
16801;DHT22;8518;53.236;10.384;2023-07-16T09:35:00;24.30;99.90
16801;DHT22;8518;53.236;10.384;2023-07-16T09:37:26;23.70;99.90
16801;DHT22;8518;53.236;10.384;2023-07-16T09:39:53;23.20;99.90
16801;DHT22;8518;53.236;10.384;2023-07-16T09:42:19;23.10;99.90
16801;DHT22;8518;53.236;10.384;2023-07-16T09:44:46;23.70;99.90
16801;DHT22;8518;53.236;10.384;2023-07-16T09:47:12;24.40;99.90
16801;DHT22;8518;53.236;10.384;2023-07-16T09:49:39;25.90;99.90
16801;DHT22;8518;53.236;10.384;2023-07-16T09:52:05;27.00;97.00
16801;DHT22;8518;53.236;10.384;2023-07-16T09:54:36;26.90;96.80
16801;DHT22;8518;53.236;10.384;2023-07-16T09:57:04;27.60;95.30
16801;DHT22;8518;53.236;10.384;2023-07-16T09:59:35;28.00;94.80
16801;DHT22;8518;53.236;10.384;2023-07-16T10:02:06;29.10;93.40
16801;DHT22;8518;53.236;10.384;2023-07-16T10:04:38;29.00;91.50
16801;DHT22;8518;53.236;10.384;2023-07-16T10:07:19;27.60;91.90
16801;DHT22;8518;53.236;10.384;2023-07-16T10:09:53;27.40;92.40
16801;DHT22;8518;53.236;10.384;2023-07-16T10:12:21;28.10;91.10
16801;DHT22;8518;53.236;10.384;2023-07-16T10:14:48;28.40;90.90
16801;DHT22;8518;53.236;10.384;2023-07-16T10:17:25;28.80;89.40
16801;DHT22;8518;53.236;10.384;2023-07-16T10:20:13;28.80;85.90
16801;DHT22;8518;53.236;10.384;2023-07-16T10:22:46;29.10;86.30
16801;DHT22;8518;53.236;10.384;2023-07-16T10:25:22;30.20;81.60
16801;DHT22;8518;53.236;10.384;2023-07-16T10:27:50;31.20;79.10
16801;DHT22;8518;53.236;10.384;2023-07-16T10:30:17;31.50;72.70
16801;DHT22;8518;53.236;10.384;2023-07-16T10:32:43;31.70;70.30
16801;DHT22;8518;53.236;10.384;2023-07-16T10:35:12;31.80;67.60
16801;DHT22;8518;53.236;10.384;2023-07-16T10:37:41;31.30;69.80
16801;DHT22;8518;53.236;10.384;2023-07-16T10:40:11;31.60;67.40
16801;DHT22;8518;53.236;10.384;2023-07-16T10:42:41;32.10;63.70
16801;DHT22;8518;53.236;10.384;2023-07-16T10:45:08;30.90;65.40
16801;DHT22;8518;53.236;10.384;2023-07-16T10:47:40;30.10;67.00
16801;DHT22;8518;53.236;10.384;2023-07-16T10:50:15;30.40;66.70
16801;DHT22;8518;53.236;10.384;2023-07-16T10:52:41;30.70;67.10
16801;DHT22;8518;53.236;10.384;2023-07-16T10:55:07;30.30;67.00
16801;DHT22;8518;53.236;10.384;2023-07-16T10:57:32;30.20;65.50
16801;DHT22;8518;53.236;10.384;2023-07-16T10:59:59;28.80;67.50
16801;DHT22;8518;53.236;10.384;2023-07-16T11:02:26;29.10;70.00
16801;DHT22;8518;53.236;10.384;2023-07-16T11:04:52;29.90;67.50
16801;DHT22;8518;53.236;10.384;2023-07-16T11:07:28;30.70;65.90
16801;DHT22;8518;53.236;10.384;2023-07-16T11:09:54;30.70;66.50
16801;DHT22;8518;53.236;10.384;2023-07-16T11:12:23;30.60;64.90
16801;DHT22;8518;53.236;10.384;2023-07-16T11:14:53;29.60;65.40
16801;DHT22;8518;53.236;10.384;2023-07-16T11:17:20;28.20;69.50
16801;DHT22;8518;53.236;10.384;2023-07-16T11:19:48;27.70;72.20
16801;DHT22;8518;53.236;10.384;2023-07-16T11:22:15;27.30;71.60
16801;DHT22;8518;53.236;10.384;2023-07-16T11:24:43;26.70;73.10
16801;DHT22;8518;53.236;10.384;2023-07-16T11:27:19;26.70;75.40
16801;DHT22;8518;53.236;10.384;2023-07-16T11:29:50;27.20;74.60
16801;DHT22;8518;53.236;10.384;2023-07-16T11:34:59;28.10;71.70
16801;DHT22;8518;53.236;10.384;2023-07-16T11:37:25;28.20;70.90
16801;DHT22;8518;53.236;10.384;2023-07-16T11:39:58;28.20;72.60
16801;DHT22;8518;53.236;10.384;2023-07-16T11:42:30;28.60;71.60
16801;DHT22;8518;53.236;10.384;2023-07-16T11:44:57;28.50;70.10
16801;DHT22;8518;53.236;10.384;2023-07-16T11:47:27;28.00;70.80
16801;DHT22;8518;53.236;10.384;2023-07-16T11:49:53;27.40;73.30
16801;DHT22;8518;53.236;10.384;2023-07-16T11:52:24;27.00;75.70
16801;DHT22;8518;53.236;10.384;2023-07-16T11:54:51;27.10;74.60
16801;DHT22;8518;53.236;10.384;2023-07-16T11:57:16;27.40;75.30
16801;DHT22;8518;53.236;10.384;2023-07-16T11:59:42;27.70;72.80
16801;DHT22;8518;53.236;10.384;2023-07-16T12:02:08;27.40;72.00
16801;DHT22;8518;53.236;10.384;2023-07-16T12:04:34;26.80;74.10
16801;DHT22;8518;53.236;10.384;2023-07-16T12:06:59;26.50;75.20
16801;DHT22;8518;53.236;10.384;2023-07-16T12:09:25;26.30;78.00
16801;DHT22;8518;53.236;10.384;2023-07-16T12:11:51;26.70;74.70
16801;DHT22;8518;53.236;10.384;2023-07-16T12:14:16;27.40;74.90
16801;DHT22;8518;53.236;10.384;2023-07-16T12:16:42;27.50;72.60
16801;DHT22;8518;53.236;10.384;2023-07-16T12:19:09;27.10;74.30
16801;DHT22;8518;53.236;10.384;2023-07-16T12:21:35;26.50;75.70
16801;DHT22;8518;53.236;10.384;2023-07-16T12:24:00;25.80;78.90
16801;DHT22;8518;53.236;10.384;2023-07-16T12:26:28;25.70;78.80
16801;DHT22;8518;53.236;10.384;2023-07-16T12:28:53;26.40;79.10
16801;DHT22;8518;53.236;10.384;2023-07-16T12:31:19;27.10;75.10
16801;DHT22;8518;53.236;10.384;2023-07-16T12:33:48;27.10;75.30
16801;DHT22;8518;53.236;10.384;2023-07-16T12:36:14;26.90;77.50
16801;DHT22;8518;53.236;10.384;2023-07-16T12:38:41;26.40;78.00
16801;DHT22;8518;53.236;10.384;2023-07-16T12:41:08;25.90;78.10
16801;DHT22;8518;53.236;10.384;2023-07-16T12:43:34;26.00;79.60
16801;DHT22;8518;53.236;10.384;2023-07-16T12:46:04;26.10;79.00
16801;DHT22;8518;53.236;10.384;2023-07-16T12:48:30;26.60;77.20
16801;DHT22;8518;53.236;10.384;2023-07-16T12:50:56;26.50;77.70
16801;DHT22;8518;53.236;10.384;2023-07-16T12:53:22;26.50;78.50
16801;DHT22;8518;53.236;10.384;2023-07-16T12:55:49;26.50;79.20
16801;DHT22;8518;53.236;10.384;2023-07-16T12:58:14;26.60;78.10
16801;DHT22;8518;53.236;10.384;2023-07-16T13:00:40;26.70;77.50
16801;DHT22;8518;53.236;10.384;2023-07-16T13:03:06;26.50;77.90
16801;DHT22;8518;53.236;10.384;2023-07-16T13:05:42;26.10;76.50
16801;DHT22;8518;53.236;10.384;2023-07-16T13:08:08;25.90;79.20
16801;DHT22;8518;53.236;10.384;2023-07-16T13:10:34;25.80;80.70
16801;DHT22;8518;53.236;10.384;2023-07-16T13:13:00;25.80;80.80
16801;DHT22;8518;53.236;10.384;2023-07-16T13:15:26;25.90;79.90
16801;DHT22;8518;53.236;10.384;2023-07-16T13:17:52;25.60;79.90
16801;DHT22;8518;53.236;10.384;2023-07-16T13:20:18;25.40;80.30
16801;DHT22;8518;53.236;10.384;2023-07-16T13:22:45;25.10;81.10
16801;DHT22;8518;53.236;10.384;2023-07-16T13:25:11;25.40;81.20
16801;DHT22;8518;53.236;10.384;2023-07-16T13:27:36;25.40;81.40
16801;DHT22;8518;53.236;10.384;2023-07-16T13:30:02;25.50;81.60
16801;DHT22;8518;53.236;10.384;2023-07-16T13:32:28;25.50;81.30
16801;DHT22;8518;53.236;10.384;2023-07-16T13:34:54;25.90;81.90
16801;DHT22;8518;53.236;10.384;2023-07-16T13:37:19;26.20;80.90
16801;DHT22;8518;53.236;10.384;2023-07-16T13:39:46;26.00;79.20
16801;DHT22;8518;53.236;10.384;2023-07-16T13:42:12;25.80;80.10
16801;DHT22;8518;53.236;10.384;2023-07-16T13:44:37;25.60;80.40
16801;DHT22;8518;53.236;10.384;2023-07-16T13:47:03;25.70;82.40
16801;DHT22;8518;53.236;10.384;2023-07-16T13:49:29;25.40;82.20
16801;DHT22;8518;53.236;10.384;2023-07-16T13:51:55;25.50;82.70
16801;DHT22;8518;53.236;10.384;2023-07-16T13:54:20;25.60;83.90
16801;DHT22;8518;53.236;10.384;2023-07-16T13:56:47;25.90;82.80
16801;DHT22;8518;53.236;10.384;2023-07-16T13:59:12;26.20;81.20
16801;DHT22;8518;53.236;10.384;2023-07-16T14:01:39;26.30;82.00
16801;DHT22;8518;53.236;10.384;2023-07-16T14:04:05;26.70;81.90
16801;DHT22;8518;53.236;10.384;2023-07-16T14:06:31;26.70;80.40
16801;DHT22;8518;53.236;10.384;2023-07-16T14:08:58;26.40;82.40
16801;DHT22;8518;53.236;10.384;2023-07-16T14:11:24;26.10;81.60
16801;DHT22;8518;53.236;10.384;2023-07-16T14:13:50;25.90;83.60
16801;DHT22;8518;53.236;10.384;2023-07-16T14:16:20;25.80;82.80
16801;DHT22;8518;53.236;10.384;2023-07-16T14:18:53;25.50;83.50
16801;DHT22;8518;53.236;10.384;2023-07-16T14:21:19;25.20;84.10
16801;DHT22;8518;53.236;10.384;2023-07-16T14:23:45;24.90;85.30
16801;DHT22;8518;53.236;10.384;2023-07-16T14:26:11;24.90;86.00
16801;DHT22;8518;53.236;10.384;2023-07-16T14:28:37;25.10;86.20
16801;DHT22;8518;53.236;10.384;2023-07-16T14:31:07;25.10;86.90
16801;DHT22;8518;53.236;10.384;2023-07-16T14:33:32;25.10;86.60
16801;DHT22;8518;53.236;10.384;2023-07-16T14:35:58;25.30;87.40
16801;DHT22;8518;53.236;10.384;2023-07-16T14:38:23;25.30;85.20
16801;DHT22;8518;53.236;10.384;2023-07-16T14:40:49;25.20;85.80
16801;DHT22;8518;53.236;10.384;2023-07-16T14:43:16;25.00;86.30
16801;DHT22;8518;53.236;10.384;2023-07-16T14:45:41;24.90;86.50
16801;DHT22;8518;53.236;10.384;2023-07-16T14:48:07;25.10;87.40
16801;DHT22;8518;53.236;10.384;2023-07-16T14:50:34;24.90;89.20
16801;DHT22;8518;53.236;10.384;2023-07-16T14:53:00;25.00;89.90
16801;DHT22;8518;53.236;10.384;2023-07-16T14:55:26;25.30;89.30
16801;DHT22;8518;53.236;10.384;2023-07-16T14:57:51;25.40;90.00
16801;DHT22;8518;53.236;10.384;2023-07-16T15:00:17;25.50;87.00
16801;DHT22;8518;53.236;10.384;2023-07-16T15:02:43;25.70;87.40
16801;DHT22;8518;53.236;10.384;2023-07-16T15:05:09;25.80;86.50
16801;DHT22;8518;53.236;10.384;2023-07-16T15:07:35;25.20;86.60
16801;DHT22;8518;53.236;10.384;2023-07-16T15:10:02;25.70;86.10
16801;DHT22;8518;53.236;10.384;2023-07-16T15:12:28;25.60;84.60
16801;DHT22;8518;53.236;10.384;2023-07-16T15:14:53;25.60;87.20
16801;DHT22;8518;53.236;10.384;2023-07-16T15:17:19;25.30;87.50
16801;DHT22;8518;53.236;10.384;2023-07-16T15:19:45;25.30;87.70
16801;DHT22;8518;53.236;10.384;2023-07-16T15:22:10;25.50;86.20
16801;DHT22;8518;53.236;10.384;2023-07-16T15:24:36;25.50;86.80
16801;DHT22;8518;53.236;10.384;2023-07-16T15:27:02;25.40;85.80
16801;DHT22;8518;53.236;10.384;2023-07-16T15:29:29;25.20;88.50
16801;DHT22;8518;53.236;10.384;2023-07-16T15:31:54;25.30;86.90
16801;DHT22;8518;53.236;10.384;2023-07-16T15:34:20;25.60;89.00